Bay Port, MI

7:39 AM EST on November 28, 2014 (GMT -0500)
Sand Point | Change Station
CLOSE
Current Station
Personal Weather Station
Location: Sand Point, MI
Elevation: 598 ft
Nearby Weather Stations

Elev 598 ft 43.91 °N, 83.38 °W | Updated 4 minutes ago

Mostly Cloudy
Mostly Cloudy
20.4 °F
Feels Like 12 °F
N
7.0
Wind Variable Wind from West
Gusts 11.0 mph

Today
High -- | Low -- °F
--% Chance of Precip.
Yesterday
High -- | Low -- °F
Precip. -- in
7:44 AM 4:58 PM
Waxing Crescent, 40% visible
Pressure 30.30 in
Visibility 10.0 miles
Clouds Overcast 2800 ft
Windchill 12 °F
Dew Point 10 °F
Humidity 65%
Rainfall 0.00 in
Snow Depth Not available.
UV 0.0 out of 12
Pollen .10 out of 12
Air Quality Not available.
Flu Activity Not available.
METAR KBAX 281236Z AUTO 30006KT 10SM OVC028 M07/M12 A3030 RMK AO2 T10701119

More Conditions Fewer Conditions

Pressure 30.30 in
Visibility 10.0 miles
Clouds Overcast 2800 ft
Windchill 12 °F
Dew Point 10 °F
Humidity 65%
Rainfall 0.00 in
Snow Depth Not available.
UV 0.0 out of 12
Pollen .10 out of 12
Air Quality Not available.
Flu Activity Not available.
METAR KBAX 281236Z AUTO 30006KT 10SM OVC028 M07/M12 A3030 RMK AO2 T10701119

More Conditions Fewer Conditions

10-Day Weather Forecast

Almanac

Astronomy

Nov. 28, 2014 Rise Set
Actual Time
Civil Twilight
Nautical Twilight
Astronomical Twilight
Moon
Length of Visible Light
Length of Day
Tomorrow will be .
, % of the Moon is Illuminated

Today's Extremes

State Highs State Lows

Community

WunderPhotos

Upload Photos

1,774,199 photos uploaded!

WunderBlogs® & News

Nearby

Air Quality

  Air Quality AQ Index Pollutant
Not available.

Snow Depth

Station Depth Elevation

Earthquake Activity

City Distance Mag. Time & Date
Minimum magnitude displayed is 2.5.

Coastal Water Temperatures

Place Temperature

Nearby Weather Stations